NCAR-RAP Real-Time Weather Data

Output produced by METARs form (10 April 2020  06:50 UTC)
found at http://weather.rap.ucar.edu/surface/
 
KLAN 100553Z 31011KT 10SM BKN044 BKN080 01/M03 A2974 RMK AO2 SLP076 60000 T00111033 10017 20000 53004